ADDS METAR Data INFO
IDs: Format: Raw Decoded Include TAF

Data at: 0713 UTC 24 Jun 2018

K7L2 240655Z AUTO 00000KT 10SM 16/16 A2981 RMK AO2
K7L2 240635Z AUTO 00000KT 10SM 16/16 A2981 RMK AO2
K7L2 240615Z AUTO 24004KT 10SM 16/16 A2982 RMK AO2
K7L2 240555Z AUTO 00000KT 10SM 16/16 A2981 RMK AO2 LTG DSNT SW
K7L2 240535Z AUTO 24004KT 10SM 15/15 A2980 RMK AO2
K7L2 240515Z AUTO 00000KT 10SM CLR 15/15 A2979 RMK AO2
K7L2 240455Z AUTO 00000KT 10SM FEW095 16/16 A2979 RMK AO2
K7L2 240435Z AUTO 00000KT 10SM FEW095 FEW110 17/17 A2979 RMK AO2
K7L2 240415Z AUTO 34003KT 10SM CLR 17/16 A2980 RMK AO2
K7L2 240335Z AUTO 06005KT 10SM CLR 18/16 A2979 RMK AO2
K7L2 240315Z AUTO 05005KT 10SM CLR 18/16 A2978 RMK AO2
K7L2 240255Z AUTO 06005KT 10SM CLR 19/15 A2976 RMK AO2
K7L2 240235Z AUTO 05006KT 10SM CLR 19/16 A2975 RMK AO2
K7L2 240215Z AUTO 01003KT 10SM CLR 19/16 A2975 RMK AO2
K7L2 240155Z AUTO 00000KT 10SM CLR 20/16 A2975 RMK AO2
K7L2 240135Z AUTO 00000KT 10SM CLR 21/16 A2975 RMK AO2
K7L2 240115Z AUTO 03003KT 10SM FEW080 20/16 A2974 RMK AO2
K7L2 240055Z AUTO 04003KT 10SM SCT080 21/16 A2974 RMK AO2
K7L2 240035Z AUTO 06006KT 10SM SCT090 21/15 A2973 RMK AO2
K7L2 240015Z AUTO 09005KT 10SM BKN090 21/15 A2973 RMK AO2
K7L2 232355Z AUTO 04004KT 10SM BKN095 22/15 A2974 RMK AO2
K7L2 232335Z AUTO 00000KT 10SM SCT085 BKN100 21/15 A2974 RMK AO2
K7L2 232315Z AUTO 13007KT 10SM FEW070 SCT080 BKN100 21/15 A2974 RMK AO2
K7L2 232255Z AUTO 14006KT 10SM BKN095 BKN120 21/16 A2974 RMK AO2
K7L2 232235Z AUTO 13006KT 10SM BKN090 22/15 A2973 RMK AO2 LTG DSNT N
K7L2 232215Z AUTO 12007KT 10SM FEW085 FEW100 22/15 A2973 RMK AO2 LTG DSNT N
K7L2 232155Z AUTO 10005KT 10SM SCT085 SCT110 22/15 A2973 RMK AO2
K7L2 232135Z AUTO 00000KT 10SM FEW028 BKN090 23/16 A2973 RMK AO2
K7L2 232115Z AUTO 11007KT 10SM FEW022 FEW027 SCT090 23/17 A2973 RMK AO2
K7L2 232055Z AUTO 12007G12KT 10SM CLR 23/18 A2972 RMK AO2
K7L2 232035Z AUTO 14006KT 10SM CLR 22/18 A2972 RMK AO2 LTG DSNT SE AND SW
K7L2 232015Z AUTO VRB03KT 9SM FEW029 FEW039 SCT100 20/18 A2972 RMK AO2
K7L2 231955Z AUTO 16005KT 9SM SCT019 BKN029 BKN039 20/18 A2973 RMK AO2
K7L2 231935Z AUTO 00000KT 10SM -DZ FEW001 SCT020 BKN095 20/16 A2973 RMK AO2
K7L2 231915Z AUTO 00000KT 7SM -RA FEW001 FEW016 SCT041 20/16 A2974 RMK AO2
K7L2 231855Z AUTO 15003KT 10SM SCT095 20/16 A2974 RMK AO2 LTG DSNT N AND NE
K7L2 231835Z AUTO 15006KT 10SM CLR 20/17 A2974 RMK AO2
K7L2 231815Z AUTO 13003KT 9SM FEW045 19/16 A2974 RMK AO2
K7L2 231755Z AUTO 12004KT 10SM FEW045 FEW060 SCT100 20/16 A2974 RMK AO2
K7L2 231735Z AUTO 00000KT 10SM SCT110 20/16 A2974 RMK AO2
K7L2 231715Z AUTO 12004KT 10SM FEW070 FEW100 20/17 A2974 RMK AO2
K7L2 231655Z AUTO 13007G12KT 10SM SCT019 SCT039 SCT085 21/17 A2974 RMK AO2 LTG DSNT SE
K7L2 231635Z AUTO 14010KT 10SM FEW021 BKN037 BKN090 22/17 A2974 RMK AO2
K7L2 231615Z AUTO 16009KT 10SM BKN036 BKN100 BKN120 21/17 A2975 RMK AO2
K7L2 231555Z AUTO 16006KT 10SM SCT036 SCT120 21/17 A2974 RMK AO2
K7L2 231535Z AUTO 17007KT 10SM CLR 21/17 A2974 RMK AO2
K7L2 231515Z AUTO 17008KT 10SM SCT020 SCT026 21/17 A2974 RMK AO2
K7L2 231455Z AUTO 18006KT 10SM SCT020 BKN027 21/18 A2973 RMK AO2
K7L2 231435Z AUTO 16005KT 10SM FEW017 FEW028 FEW047 20/18 A2973 RMK AO2
K7L2 231415Z AUTO 18008KT 10SM FEW100 SCT120 20/18 A2973 RMK AO2
K7L2 231355Z AUTO 19004KT 10SM FEW023 SCT050 BKN100 19/19 A2973 RMK AO2
K7L2 231335Z AUTO 00000KT 4SM -RA FEW001 SCT021 BKN046 18/18 A2973 RMK AO2
K7L2 231315Z AUTO 17005KT 10SM SCT055 BKN095 OVC120 18/18 A2973 RMK AO2
K7L2 231255Z AUTO 19006KT 10SM BKN060 BKN080 BKN090 18/18 A2973 RMK AO2
K7L2 231235Z AUTO 16005KT 10SM FEW075 BKN100 18/18 A2972 RMK AO2
K7L2 231215Z AUTO 14003KT 10SM FEW075 BKN100 BKN120 18/18 A2972 RMK AO2
K7L2 231155Z AUTO 00000KT 10SM SCT070 BKN085 BKN120 17/17 A2972 RMK AO2
K7L2 231135Z AUTO 00000KT 10SM SCT070 BKN090 BKN120 17/17 A2972 RMK AO2
K7L2 231115Z AUTO 11003KT 10SM BKN070 BKN090 17/17 A2972 RMK AO2
K7L2 231055Z AUTO 13004KT 10SM BKN075 OVC085 17/17 A2972 RMK AO2
K7L2 231035Z AUTO 15004KT 10SM OVC075 17/17 A2972 RMK AO2
K7L2 231015Z AUTO 12003KT 10SM FEW046 BKN080 OVC090 17/17 A2972 RMK AO2
K7L2 230955Z AUTO 00000KT 10SM 17/17 A2973 RMK AO2
K7L2 230935Z AUTO 14003KT 10SM 17/17 A2973 RMK AO2
K7L2 230915Z AUTO 00000KT 10SM 17/17 A2973 RMK AO2
K7L2 230855Z AUTO 09004KT 9SM FEW036 SCT049 BKN110 17/17 A2974 RMK AO2
K7L2 230835Z AUTO 11004KT 10SM FEW041 BKN048 OVC110 17/17 A2974 RMK AO2
K7L2 230815Z AUTO 11004KT 10SM SCT044 BKN049 OVC100 17/17 A2974 RMK AO2
K7L2 230755Z AUTO 09004KT 10SM FEW055 BKN110 17/17 A2975 RMK AO2
K7L2 230735Z AUTO 12004KT 10SM SCT110 18/16 A2975 RMK AO2
K7L2 230715Z AUTO 00000KT 10SM SCT100 17/16 A2975 RMK AO2
K7L2 230655Z AUTO 17003KT 10SM FEW100 18/16 A2976 RMK AO2
K7L2 230635Z AUTO 21004KT 10SM CLR 17/16 A2975 RMK AO2
K7L2 230615Z AUTO 21004KT 10SM CLR 17/16 A2976 RMK AO2
K7L2 230555Z AUTO 00000KT 10SM CLR 16/16 A2976 RMK AO2
K7L2 230535Z AUTO 22004KT 10SM CLR 16/16 A2976 RMK AO2
K7L2 230515Z AUTO 24005KT 10SM CLR 18/15 A2977 RMK AO2
K7L2 230455Z AUTO 23008KT 10SM FEW055 FEW070 FEW110 19/15 A2978 RMK AO2
K7L2 230435Z AUTO 19005KT 10SM FEW055 SCT065 BKN100 18/16 A2978 RMK AO2
K7L2 230415Z AUTO 00000KT 10SM SCT090 SCT110 20/15 A2978 RMK AO2
K7L2 230355Z AUTO 22004KT 10SM FEW080 SCT110 19/15 A2978 RMK AO2
K7L2 230335Z AUTO 00000KT 10SM SCT110 20/15 A2977 RMK AO2
K7L2 230315Z AUTO 20006KT 10SM SCT110 21/15 A2976 RMK AO2
K7L2 230255Z AUTO 19008KT 10SM CLR 20/15 A2975 RMK AO2
K7L2 230235Z AUTO 19006KT 10SM CLR 20/15 A2975 RMK AO2
K7L2 230215Z AUTO 19006KT 10SM 21/15 A2975 RMK AO2 LTG DSNT W
K7L2 230155Z AUTO 20006KT 10SM 22/15 A2975 RMK AO2
K7L2 230135Z AUTO 21005KT 10SM 24/15 A2975 RMK AO2
K7L2 230115Z AUTO 22009KT 10SM 25/15 A2976 RMK AO2
K7L2 230055Z AUTO 20008KT 10SM 25/15 A2975 RMK AO2
K7L2 230035Z AUTO 20010KT 10SM 26/15 A2975 RMK AO2
K7L2 230015Z AUTO 17012G17KT 10SM 26/14 A2975 RMK AO2
K7L2 222355Z AUTO 18010G17KT 10SM 27/15 A2975 RMK AO2
K7L2 222335Z AUTO 17009G15KT 10SM 28/15 A2974 RMK AO2
K7L2 222315Z AUTO 18011G16KT 10SM 27/15 A2975 RMK AO2
K7L2 222255Z AUTO 16009KT 10SM 28/15 A2976 RMK AO2 LTG DSNT W
K7L2 222235Z AUTO 16012KT 10SM 28/15 A2977 RMK AO2
K7L2 222215Z AUTO 18011KT 10SM 28/15 A2978 RMK AO2
K7L2 222155Z AUTO 16009G14KT 10SM 28/16 A2979 RMK AO2 LTG DSNT W AND NW
K7L2 222135Z AUTO 19010KT 10SM 27/15 A2980 RMK AO2
K7L2 222115Z AUTO 22012KT 10SM 26/15 A2981 RMK AO2
K7L2 222055Z AUTO 21011KT 10SM 27/15 A2981 RMK AO2
K7L2 222035Z AUTO 19009G16KT 10SM 28/15 A2982 RMK AO2
K7L2 222015Z AUTO 17008KT 10SM 28/16 A2983 RMK AO2
K7L2 221955Z AUTO 19012KT 10SM 27/16 A2984 RMK AO2
K7L2 221935Z AUTO 18011G18KT 160V220 10SM 28/16 A2984 RMK AO2
K7L2 221915Z AUTO 17015KT 10SM 28/15 A2985 RMK AO2